createdAt,value
2022-10-09T00:03:51.627Z,99667.38
2022-10-09T00:08:59.392Z,99670.78
2022-10-09T00:14:04.379Z,99674.25
2022-10-09T00:19:09.194Z,99674.75
2022-10-09T00:24:16.568Z,99676.88
2022-10-09T00:29:21.308Z,99674.47
2022-10-09T00:34:26.712Z,99679.97
2022-10-09T00:39:34.247Z,99678.09
2022-10-09T00:44:57.805Z,99675.19
2022-10-09T00:50:07.310Z,99669.88
2022-10-09T00:55:16.920Z,99678.59
2022-10-09T01:00:21.641Z,99676.94
2022-10-09T01:05:34.874Z,99682.38
2022-10-09T01:10:53.079Z,99680.28
2022-10-09T01:16:01.191Z,99689.50
2022-10-09T01:21:13.430Z,99682.81
2022-10-09T01:26:37.113Z,99684.13
2022-10-09T01:31:47.831Z,99696.47
2022-10-09T01:36:54.572Z,99693.50
2022-10-09T01:42:00.501Z,99699.06
2022-10-09T01:47:09.247Z,99696.13
2022-10-09T01:52:22.746Z,99696.03
2022-10-09T01:57:34.051Z,99697.56
2022-10-09T02:02:43.322Z,99709.97
2022-10-09T02:07:48.495Z,99720.31
2022-10-09T02:12:57.879Z,99717.81
2022-10-09T02:18:09.022Z,99719.09
2022-10-09T02:23:16.383Z,99727.22
2022-10-09T02:28:21.396Z,99724.97
2022-10-09T02:33:34.283Z,99731.69
2022-10-09T02:38:39.192Z,99741.59
2022-10-09T02:43:44.016Z,99741.59
2022-10-09T02:48:51.363Z,99746.56
2022-10-09T02:53:56.908Z,99746.91
2022-10-09T02:59:01.697Z,99751.66
2022-10-09T03:04:09.303Z,99756.50
2022-10-09T03:09:14.074Z,99759.06
2022-10-09T03:14:18.887Z,99756.81
2022-10-09T03:19:26.316Z,99764.97
2022-10-09T03:24:31.164Z,99767.38
2022-10-09T03:29:35.969Z,99767.88
2022-10-09T03:34:43.592Z,99775.84
2022-10-09T03:39:48.502Z,99780.09
2022-10-09T03:44:53.878Z,99778.97
2022-10-09T03:50:01.947Z,99780.03
2022-10-09T03:55:08.084Z,99788.91
2022-10-09T04:00:14.655Z,99784.97
2022-10-09T04:05:22.343Z,99791.88
2022-10-09T04:10:27.302Z,99789.75
2022-10-09T04:15:32.193Z,99784.13
2022-10-09T04:20:39.775Z,99796.03
2022-10-09T04:25:44.635Z,99787.72
2022-10-09T04:30:50.015Z,99789.09
2022-10-09T04:35:58.943Z,99789.66
2022-10-09T04:41:06.080Z,99806.22
2022-10-09T04:46:13.418Z,99807.78
2022-10-09T04:51:22.424Z,99805.97
2022-10-09T04:56:27.583Z,99802.84
2022-10-09T05:01:37.207Z,99813.13
2022-10-09T05:06:45.547Z,99814.22
2022-10-09T05:11:52.380Z,99817.88
2022-10-09T05:17:13.025Z,99816.00
2022-10-09T05:22:21.370Z,99827.06
2022-10-09T05:27:26.440Z,99829.28
2022-10-09T05:32:31.210Z,99839.63
2022-10-09T05:37:38.874Z,99840.75
2022-10-09T05:42:43.943Z,99837.63
2022-10-09T05:47:51.512Z,99837.00
2022-10-09T05:52:59.506Z,99841.19
2022-10-09T05:58:04.270Z,99853.16
2022-10-09T06:03:09.120Z,99846.44
2022-10-09T06:08:16.447Z,99844.03
2022-10-09T06:13:23.905Z,99840.72
2022-10-09T06:18:30.240Z,99848.72
2022-10-09T06:23:38.142Z,99849.66
2022-10-09T06:28:43.891Z,99854.94
2022-10-09T06:33:50.594Z,99860.63
2022-10-09T06:39:00.853Z,99868.44
2022-10-09T06:44:07.824Z,99854.91
2022-10-09T06:49:14.299Z,99863.06
2022-10-09T06:54:22.066Z,99869.06
2022-10-09T06:59:27.033Z,99878.13
2022-10-09T07:04:32.127Z,99874.66
2022-10-09T07:09:39.674Z,99884.25
2022-10-09T07:14:44.399Z,99892.44
2022-10-09T07:19:49.133Z,99882.88
2022-10-09T07:24:56.767Z,99889.25
2022-10-09T07:30:01.867Z,99890.94
2022-10-09T07:35:07.398Z,99898.72
2022-10-09T07:40:15.222Z,99910.41
2022-10-09T07:45:20.073Z,99898.34
2022-10-09T07:50:24.921Z,99899.78
2022-10-09T07:55:32.411Z,99903.63
2022-10-09T08:00:37.147Z,99901.38
2022-10-09T08:05:41.939Z,99898.13
2022-10-09T08:10:49.465Z,99896.44
2022-10-09T08:15:55.055Z,99892.75
2022-10-09T08:21:00.931Z,99899.59
2022-10-09T08:26:15.408Z,99896.50
2022-10-09T08:31:20.621Z,99887.34
2022-10-09T08:36:26.549Z,99898.25
2022-10-09T08:41:43.768Z,99889.25
2022-10-09T08:47:04.971Z,99898.84
2022-10-09T08:52:22.699Z,99886.13
2022-10-09T08:57:35.692Z,99890.22
2022-10-09T09:02:57.184Z,99891.44
2022-10-09T09:08:08.510Z,99889.91
2022-10-09T09:13:35.660Z,99880.91
2022-10-09T09:18:50.510Z,99884.72
2022-10-09T09:23:55.481Z,99889.53
2022-10-09T09:29:07.745Z,99874.31
2022-10-09T09:34:16.758Z,99889.66
2022-10-09T09:40:23.792Z,99876.91
2022-10-09T09:44:58.301Z,99876.25
2022-10-09T09:50:05.582Z,99872.28
2022-10-09T09:55:25.304Z,99865.22
2022-10-09T10:00:33.070Z,99870.53
2022-10-09T10:05:40.851Z,99881.34
2022-10-09T10:10:49.864Z,99871.06
2022-10-09T10:15:59.776Z,99875.53
2022-10-09T10:21:08.051Z,99870.56
2022-10-09T10:26:26.062Z,99858.63
2022-10-09T10:31:53.788Z,99857.66
2022-10-09T10:37:06.429Z,99848.06
2022-10-09T10:42:18.381Z,99850.66
2022-10-09T10:47:32.920Z,99851.50
2022-10-09T10:52:51.066Z,99846.47
2022-10-09T10:58:06.790Z,99842.63
2022-10-09T11:03:34.970Z,99837.25
2022-10-09T11:08:52.977Z,99834.78
2022-10-09T11:14:20.066Z,99825.59
2022-10-09T11:19:53.923Z,99820.94
2022-10-09T11:25:23.577Z,99799.03
2022-10-09T11:30:30.779Z,99802.31
2022-10-09T11:35:45.423Z,99790.00
2022-10-09T11:40:50.873Z,99779.47
2022-10-09T11:46:02.148Z,99771.47
2022-10-09T11:51:19.203Z,99767.50
2022-10-09T11:56:25.601Z,99757.59
2022-10-09T12:01:35.993Z,99741.97
2022-10-09T12:06:56.202Z,99736.69
2022-10-09T12:12:07.207Z,99731.50
2022-10-09T12:17:20.050Z,99735.34
2022-10-09T12:22:32.215Z,99713.53
2022-10-09T12:27:40.441Z,99717.84
2022-10-09T12:32:50.465Z,99713.16
2022-10-09T12:37:58.227Z,99705.69
2022-10-09T12:43:09.791Z,99695.28
2022-10-09T12:48:17.054Z,99700.59
2022-10-09T12:53:26.457Z,99697.56
2022-10-09T12:58:36.180Z,99685.94
2022-10-09T13:03:43.667Z,99684.47
2022-10-09T13:08:56.911Z,99681.03
2022-10-09T13:14:01.870Z,99671.59
2022-10-09T13:19:07.734Z,99659.13
2022-10-09T13:24:16.267Z,99659.25
2022-10-09T13:29:21.399Z,99657.69
2022-10-09T13:34:28.582Z,99653.22
2022-10-09T13:39:36.110Z,99646.63
2022-10-09T13:44:40.919Z,99645.44
2022-10-09T13:49:45.889Z,99632.09
2022-10-09T13:54:53.437Z,99625.22
2022-10-09T13:59:58.308Z,99628.63
2022-10-09T14:05:03.119Z,99625.56
2022-10-09T14:10:11.526Z,99611.38
2022-10-09T14:15:16.340Z,99607.56
2022-10-09T14:20:21.498Z,99603.97
2022-10-09T14:25:28.975Z,99594.31
2022-10-09T14:30:34.385Z,99594.31
2022-10-09T14:35:39.766Z,99591.00
2022-10-09T14:40:49.055Z,99585.88
2022-10-09T14:46:03.390Z,99579.09
2022-10-09T14:51:11.130Z,99581.84
2022-10-09T14:56:20.314Z,99573.38
2022-10-09T15:01:28.244Z,99568.06
2022-10-09T15:06:33.263Z,99572.78
2022-10-09T15:11:40.845Z,99564.47
2022-10-09T15:16:45.687Z,99559.00
2022-10-09T15:21:50.573Z,99555.03
2022-10-09T15:26:59.869Z,99562.88
2022-10-09T15:32:04.849Z,99557.84
2022-10-09T15:37:10.089Z,99549.72
2022-10-09T15:42:17.482Z,99552.50
2022-10-09T15:47:39.167Z,99541.22
2022-10-09T15:52:47.416Z,99545.31
2022-10-09T15:57:55.132Z,99545.16
2022-10-09T16:03:01.398Z,99546.44
2022-10-09T16:08:06.212Z,99547.78
2022-10-09T16:13:13.624Z,99548.34
2022-10-09T16:18:19.576Z,99550.44
2022-10-09T16:23:24.383Z,99558.84
2022-10-09T16:28:32.036Z,99552.72
2022-10-09T16:33:37.193Z,99549.38
2022-10-09T16:38:42.572Z,99547.03
2022-10-09T16:43:54.574Z,99552.66
2022-10-09T16:49:00.674Z,99552.66
2022-10-09T16:54:08.117Z,99559.72
2022-10-09T16:59:16.332Z,99554.16
2022-10-09T17:04:21.411Z,99551.56
2022-10-09T17:09:26.362Z,99552.72
2022-10-09T17:14:37.210Z,99551.88
2022-10-09T17:19:44.131Z,99545.75
2022-10-09T17:24:48.927Z,99549.66
2022-10-09T17:29:57.349Z,99540.25
2022-10-09T17:35:02.103Z,99533.75
2022-10-09T17:40:07.539Z,99528.31
2022-10-09T17:45:15.113Z,99535.19
2022-10-09T17:50:19.842Z,99530.16
2022-10-09T17:55:24.679Z,99525.59
2022-10-09T18:00:32.817Z,99534.25
2022-10-09T18:05:43.558Z,99526.59
2022-10-09T18:10:49.353Z,99524.88
2022-10-09T18:15:57.318Z,99515.66
2022-10-09T18:21:07.084Z,99517.72
2022-10-09T18:26:14.866Z,99521.41
2022-10-09T18:31:25.818Z,99519.88
2022-10-09T18:36:35.045Z,99517.59
2022-10-09T18:41:40.842Z,99507.75
2022-10-09T18:46:52.664Z,99508.06
2022-10-09T18:51:59.201Z,99503.09
2022-10-09T18:57:05.328Z,99504.53
2022-10-09T19:02:13.190Z,99508.88
2022-10-09T19:07:18.330Z,99505.50
2022-10-09T19:12:23.756Z,99501.03
2022-10-09T19:17:31.778Z,99501.56
2022-10-09T19:22:37.169Z,99489.34
2022-10-09T19:27:43.017Z,99480.38
2022-10-09T19:32:53.001Z,99489.06
2022-10-09T19:37:58.605Z,99481.72
2022-10-09T19:43:05.082Z,99479.94
2022-10-09T19:48:13.275Z,99476.53
2022-10-09T19:53:18.063Z,99469.91
2022-10-09T19:58:22.929Z,99469.09
2022-10-09T20:03:31.867Z,99468.34
2022-10-09T20:08:36.680Z,99456.69
2022-10-09T20:13:44.000Z,99445.50
2022-10-09T20:18:51.480Z,99442.38
2022-10-09T20:23:58.501Z,99445.84
2022-10-09T20:29:04.193Z,99433.63
2022-10-09T20:34:11.810Z,99434.72
2022-10-09T20:39:19.908Z,99438.47
2022-10-09T20:44:24.738Z,99423.09
2022-10-09T20:49:32.283Z,99423.59
2022-10-09T20:54:37.281Z,99414.84
2022-10-09T20:59:42.103Z,99420.50
2022-10-09T21:04:49.831Z,99409.63
2022-10-09T21:09:54.808Z,99410.94
2022-10-09T21:14:59.602Z,99399.75
2022-10-09T21:20:07.868Z,99395.03
2022-10-09T21:25:13.034Z,99386.28
2022-10-09T21:30:17.852Z,99382.28
2022-10-09T21:35:25.887Z,99382.00
2022-10-09T21:40:30.958Z,99385.44
2022-10-09T21:45:35.909Z,99378.50
2022-10-09T21:50:43.410Z,99365.91
2022-10-09T21:55:48.338Z,99376.25
2022-10-09T22:00:58.674Z,99372.50
2022-10-09T22:06:07.945Z,99367.47
2022-10-09T22:11:14.276Z,99364.75
2022-10-09T22:16:19.596Z,99361.34
2022-10-09T22:21:27.183Z,99356.28
2022-10-09T22:26:32.252Z,99355.22
2022-10-09T22:31:37.411Z,99343.03
2022-10-09T22:36:45.223Z,99340.59
2022-10-09T22:41:50.100Z,99334.97
2022-10-09T22:46:55.072Z,99318.63
2022-10-09T22:52:02.420Z,99323.41
2022-10-09T22:57:07.880Z,99317.38
2022-10-09T23:02:12.662Z,99299.63
2022-10-09T23:07:20.228Z,99302.47
2022-10-09T23:12:25.150Z,99293.88
2022-10-09T23:17:30.345Z,99279.53
2022-10-09T23:22:37.823Z,99281.53
2022-10-09T23:27:43.032Z,99279.41
2022-10-09T23:32:48.112Z,99279.13
2022-10-09T23:37:56.269Z,99270.69
2022-10-09T23:43:01.308Z,99276.28
2022-10-09T23:48:06.645Z,99267.50
2022-10-09T23:53:14.246Z,99275.44
2022-10-09T23:58:20.989Z,99252.81
